createdAt,value
2022-10-05T00:02:31.880Z,15.88
2022-10-05T00:07:34.277Z,13.90
2022-10-05T00:12:36.662Z,13.80
2022-10-05T00:17:40.704Z,15.44
2022-10-05T00:22:43.161Z,16.13
2022-10-05T00:27:46.849Z,14.75
2022-10-05T00:32:49.670Z,13.28
2022-10-05T00:37:53.525Z,14.70
2022-10-05T00:43:09.521Z,15.87
2022-10-05T00:48:30.962Z,16.06
2022-10-05T00:53:39.104Z,14.11
2022-10-05T00:58:51.433Z,13.72
2022-10-05T01:03:56.752Z,15.47
2022-10-05T01:09:02.067Z,16.28
2022-10-05T01:14:07.402Z,14.87
2022-10-05T01:19:20.660Z,14.00
2022-10-05T01:24:31.497Z,15.47
2022-10-05T01:29:40.099Z,16.23
2022-10-05T01:34:50.822Z,15.75
2022-10-05T01:40:08.455Z,13.67
2022-10-05T01:45:18.742Z,14.74
2022-10-05T01:50:24.109Z,16.05
2022-10-05T01:55:41.418Z,16.40
2022-10-05T02:00:51.781Z,14.63
2022-10-05T02:05:58.295Z,14.93
2022-10-05T02:11:03.598Z,16.28
2022-10-05T02:16:10.501Z,16.36
2022-10-05T02:21:12.921Z,14.33
2022-10-05T02:26:16.865Z,14.32
2022-10-05T02:31:24.041Z,15.81
2022-10-05T02:36:32.110Z,16.48
2022-10-05T02:41:42.671Z,16.36
2022-10-05T02:46:50.983Z,14.31
2022-10-05T02:51:59.908Z,14.99
2022-10-05T02:57:05.269Z,16.15
2022-10-05T03:02:10.650Z,16.61
2022-10-05T03:07:20.677Z,15.71
2022-10-05T03:12:23.038Z,14.16
2022-10-05T03:17:30.738Z,15.50
2022-10-05T03:22:36.074Z,16.36
2022-10-05T03:27:38.491Z,16.55
2022-10-05T03:32:43.811Z,14.76
2022-10-05T03:37:51.664Z,14.68
2022-10-05T03:42:57.108Z,16.07
2022-10-05T03:48:05.441Z,16.60
2022-10-05T03:53:13.933Z,15.44
2022-10-05T03:58:28.094Z,13.86
2022-10-05T04:03:30.965Z,15.32
2022-10-05T04:08:40.040Z,16.22
2022-10-05T04:13:46.640Z,16.62
2022-10-05T04:18:54.555Z,15.91
2022-10-05T04:23:56.958Z,14.11
2022-10-05T04:29:02.273Z,15.32
2022-10-05T04:34:11.506Z,16.28
2022-10-05T04:39:13.985Z,16.60
2022-10-05T04:44:19.324Z,14.93
2022-10-05T04:49:23.794Z,13.89
2022-10-05T04:54:26.252Z,15.47
2022-10-05T04:59:41.515Z,16.34
2022-10-05T05:04:50.855Z,16.69
2022-10-05T05:09:55.344Z,14.99
2022-10-05T05:15:07.181Z,14.52
2022-10-05T05:20:16.088Z,16.08
2022-10-05T05:25:18.504Z,16.70
2022-10-05T05:30:24.653Z,15.89
2022-10-05T05:35:29.032Z,14.07
2022-10-05T05:40:34.747Z,15.28
2022-10-05T05:45:40.063Z,16.55
2022-10-05T05:50:45.398Z,16.90
2022-10-05T05:55:50.027Z,15.17
2022-10-05T06:00:57.359Z,14.54
2022-10-05T06:06:02.005Z,16.34
2022-10-05T06:11:09.749Z,17.03
2022-10-05T06:16:14.818Z,15.38
2022-10-05T06:21:37.554Z,14.66
2022-10-05T06:26:43.459Z,16.58
2022-10-05T06:31:49.423Z,17.00
2022-10-05T06:36:56.461Z,15.44
2022-10-05T06:42:04.776Z,16.63
2022-10-05T06:47:10.449Z,16.88
2022-10-05T06:52:22.594Z,15.16
2022-10-05T06:57:25.354Z,15.26
2022-10-05T07:02:33.973Z,17.12
2022-10-05T07:07:46.137Z,17.45
2022-10-05T07:12:51.475Z,15.94
2022-10-05T07:17:56.829Z,16.44
2022-10-05T07:23:03.115Z,17.91
2022-10-05T07:28:08.332Z,16.65
2022-10-05T07:33:31.016Z,16.18
2022-10-05T07:38:38.124Z,17.76
2022-10-05T07:44:03.339Z,16.54
2022-10-05T07:49:07.674Z,16.42
2022-10-05T07:54:23.092Z,18.05
2022-10-05T07:59:33.524Z,16.98
2022-10-05T08:04:50.073Z,15.92
2022-10-05T08:10:03.218Z,15.45
2022-10-05T08:15:13.322Z,16.05
2022-10-05T08:20:17.308Z,18.24
2022-10-05T08:25:24.583Z,17.74
2022-10-05T08:30:28.462Z,16.54
2022-10-05T08:35:34.098Z,17.93
2022-10-05T08:40:51.541Z,18.19
2022-10-05T08:46:14.271Z,17.65
2022-10-05T08:51:17.665Z,18.31
2022-10-05T08:56:22.205Z,16.92
2022-10-05T09:01:26.600Z,18.29
2022-10-05T09:06:31.537Z,18.14
2022-10-05T09:11:36.167Z,16.75
2022-10-05T09:16:46.514Z,16.42
2022-10-05T09:21:51.859Z,18.45
2022-10-05T09:26:56.242Z,18.35
2022-10-05T09:31:58.711Z,16.99
2022-10-05T09:37:04.593Z,17.60
2022-10-05T09:42:08.970Z,18.64
2022-10-05T09:47:14.371Z,17.44
2022-10-05T09:52:19.785Z,16.95
2022-10-05T09:57:23.328Z,18.80
2022-10-05T10:02:28.988Z,18.37
2022-10-05T10:07:44.179Z,17.55
2022-10-05T10:12:46.560Z,18.49
2022-10-05T10:17:52.068Z,19.03
2022-10-05T10:22:57.551Z,18.00
2022-10-05T10:28:02.995Z,18.18
2022-10-05T10:33:25.704Z,19.88
2022-10-05T10:38:28.670Z,18.87
2022-10-05T10:43:41.033Z,18.21
2022-10-05T10:48:46.348Z,18.42
2022-10-05T10:53:51.794Z,19.83
2022-10-05T10:58:55.135Z,18.88
2022-10-05T11:04:00.500Z,18.30
2022-10-05T11:09:08.139Z,18.20
2022-10-05T11:20:34.413Z,19.53
2022-10-05T11:25:42.816Z,18.75
2022-10-05T11:30:51.138Z,18.36
2022-10-05T11:35:55.838Z,18.32
2022-10-05T11:41:02.187Z,20.13
2022-10-05T11:46:06.733Z,19.73
2022-10-05T11:51:11.969Z,19.06
2022-10-05T11:56:16.375Z,18.71
2022-10-05T12:01:28.179Z,18.44
2022-10-05T12:06:32.623Z,18.24
2022-10-05T12:11:37.031Z,17.99
2022-10-05T12:16:45.996Z,17.78
2022-10-05T12:21:54.752Z,17.92
2022-10-05T12:27:01.367Z,20.11
2022-10-05T12:32:06.736Z,20.05
2022-10-05T12:37:10.148Z,19.20
2022-10-05T12:42:14.620Z,18.74
2022-10-05T12:47:16.982Z,18.60
2022-10-05T12:52:28.266Z,18.48
2022-10-05T12:57:38.008Z,18.21
2022-10-05T13:02:43.369Z,17.97
2022-10-05T13:07:47.956Z,17.88
2022-10-05T13:12:57.927Z,17.97
2022-10-05T13:18:01.291Z,19.75
2022-10-05T13:23:06.692Z,19.67
2022-10-05T13:28:15.489Z,18.95
2022-10-05T13:33:20.826Z,18.52
2022-10-05T13:38:26.370Z,18.21
2022-10-05T13:43:29.885Z,17.99
2022-10-05T13:48:35.270Z,17.82
2022-10-05T13:53:40.630Z,17.63
2022-10-05T13:58:43.012Z,18.63
2022-10-05T14:03:48.328Z,19.30
2022-10-05T14:08:53.188Z,18.38
2022-10-05T14:13:58.699Z,17.88
2022-10-05T14:19:04.137Z,17.54
2022-10-05T14:24:15.328Z,17.23
2022-10-05T14:29:24.961Z,17.05
2022-10-05T14:34:29.249Z,16.90
2022-10-05T14:39:34.377Z,17.62
2022-10-05T14:44:36.819Z,20.00
2022-10-05T14:49:48.209Z,19.35
2022-10-05T14:54:53.862Z,18.20
2022-10-05T14:59:57.283Z,17.55
2022-10-05T15:05:01.760Z,17.14
2022-10-05T15:10:19.046Z,16.74
2022-10-05T15:15:27.388Z,16.39
2022-10-05T15:20:34.847Z,18.07
2022-10-05T15:25:44.888Z,19.50
2022-10-05T15:30:52.643Z,18.16
2022-10-05T15:36:02.056Z,17.01
2022-10-05T15:41:04.460Z,16.30
2022-10-05T15:46:12.414Z,16.33
2022-10-05T15:51:21.828Z,18.42
2022-10-05T15:56:29.573Z,18.92
2022-10-05T16:01:32.086Z,17.22
2022-10-05T16:06:40.435Z,16.05
2022-10-05T16:11:45.973Z,15.23
2022-10-05T16:16:48.475Z,15.50
2022-10-05T16:21:51.453Z,17.51
2022-10-05T16:26:57.376Z,18.48
2022-10-05T16:32:05.695Z,17.89
2022-10-05T16:37:09.701Z,16.07
2022-10-05T16:42:22.703Z,15.66
2022-10-05T16:47:27.594Z,17.53
2022-10-05T16:52:31.693Z,18.40
2022-10-05T16:57:38.944Z,17.12
2022-10-05T17:02:41.463Z,15.56
2022-10-05T17:07:43.843Z,16.38
2022-10-05T17:12:51.298Z,17.99
2022-10-05T17:18:00.506Z,18.17
2022-10-05T17:23:18.223Z,16.39
2022-10-05T17:28:23.672Z,15.23
2022-10-05T17:33:27.646Z,16.51
2022-10-05T17:38:30.004Z,17.97
2022-10-05T17:43:33.830Z,17.26
2022-10-05T17:48:36.216Z,15.53
2022-10-05T17:53:52.705Z,15.31
2022-10-05T17:58:56.731Z,17.25
2022-10-05T18:04:02.197Z,18.12
2022-10-05T18:09:07.509Z,16.99
2022-10-05T18:14:12.876Z,15.34
2022-10-05T18:19:16.667Z,15.77
2022-10-05T18:24:24.835Z,17.55
2022-10-05T18:29:33.177Z,18.37
2022-10-05T18:34:39.232Z,18.12
2022-10-05T18:39:44.534Z,16.21
2022-10-05T18:44:48.912Z,16.43
2022-10-05T18:49:58.824Z,17.97
2022-10-05T18:55:10.011Z,18.62
2022-10-05T19:00:16.244Z,17.48
2022-10-05T19:05:46.228Z,15.98
2022-10-05T19:10:45.946Z,17.44
2022-10-05T19:15:51.411Z,18.43
2022-10-05T19:20:58.155Z,18.41
2022-10-05T19:26:02.444Z,16.53
2022-10-05T19:31:14.277Z,16.30
2022-10-05T19:36:16.700Z,17.88
2022-10-05T19:41:20.159Z,18.53
2022-10-05T19:46:22.638Z,18.35
2022-10-05T19:51:29.770Z,16.40
2022-10-05T19:56:33.388Z,16.76
2022-10-05T20:01:38.854Z,18.06
2022-10-05T20:06:42.200Z,18.55
2022-10-05T20:11:47.519Z,17.37
2022-10-05T20:17:11.982Z,15.64
2022-10-05T20:22:17.379Z,16.88
2022-10-05T20:27:22.757Z,18.01
2022-10-05T20:32:29.790Z,18.50
2022-10-05T20:37:33.228Z,18.49
2022-10-05T20:42:36.035Z,16.71
2022-10-05T20:47:38.924Z,17.10
2022-10-05T20:52:41.397Z,18.18
2022-10-05T20:57:45.941Z,18.60
2022-10-05T21:02:49.222Z,18.65
2022-10-05T21:07:51.647Z,16.87
2022-10-05T21:12:54.059Z,16.70
2022-10-05T21:17:56.609Z,17.88
2022-10-05T21:22:59.012Z,18.35
2022-10-05T21:28:01.921Z,18.44
2022-10-05T21:33:04.396Z,16.70
2022-10-05T21:38:06.801Z,16.40
2022-10-05T21:43:09.511Z,17.68
2022-10-05T21:48:13.267Z,18.24
2022-10-05T21:53:17.753Z,18.38
2022-10-05T21:58:21.435Z,16.67
2022-10-05T22:03:24.183Z,16.25
2022-10-05T22:08:28.332Z,17.54
2022-10-05T22:13:39.067Z,18.00
2022-10-05T22:18:42.047Z,16.64
2022-10-05T22:23:45.526Z,16.32
2022-10-05T22:28:48.444Z,17.53
2022-10-05T22:33:51.195Z,17.94
2022-10-05T22:38:53.606Z,18.15
2022-10-05T22:43:56.019Z,16.41
2022-10-05T22:48:58.554Z,15.29
2022-10-05T22:54:01.029Z,16.79
2022-10-05T22:59:03.500Z,17.53
2022-10-05T23:04:07.869Z,17.80
2022-10-05T23:09:10.799Z,16.38
2022-10-05T23:14:13.182Z,15.91
2022-10-05T23:19:15.829Z,17.15
2022-10-05T23:24:18.236Z,17.66
2022-10-05T23:29:20.635Z,17.44
2022-10-05T23:34:23.346Z,15.63
2022-10-05T23:39:25.778Z,16.58
2022-10-05T23:44:28.234Z,17.45
2022-10-05T23:49:30.702Z,17.84
2022-10-05T23:54:33.094Z,17.31
2022-10-05T23:59:35.502Z,15.53
